sensor_id;sensor_type;location;lat;lon;timestamp;temperature;humidity
18974;DHT22;9621;48.690;9.466;2023-07-29T00:02:26;13.90;99.90
18974;DHT22;9621;48.690;9.466;2023-07-29T00:04:55;13.90;99.90
18974;DHT22;9621;48.690;9.466;2023-07-29T00:07:23;13.90;99.90
18974;DHT22;9621;48.690;9.466;2023-07-29T00:09:50;13.80;99.90
18974;DHT22;9621;48.690;9.466;2023-07-29T00:12:17;13.80;99.90
18974;DHT22;9621;48.690;9.466;2023-07-29T00:14:43;13.80;99.90
18974;DHT22;9621;48.690;9.466;2023-07-29T00:17:10;13.80;99.90
18974;DHT22;9621;48.690;9.466;2023-07-29T00:19:37;13.80;99.90
18974;DHT22;9621;48.690;9.466;2023-07-29T00:22:04;13.80;99.90
18974;DHT22;9621;48.690;9.466;2023-07-29T00:24:35;13.70;99.90
18974;DHT22;9621;48.690;9.466;2023-07-29T00:27:02;13.80;99.90
18974;DHT22;9621;48.690;9.466;2023-07-29T00:29:29;13.80;99.90
18974;DHT22;9621;48.690;9.466;2023-07-29T00:31:56;13.80;99.90
18974;DHT22;9621;48.690;9.466;2023-07-29T00:34:23;13.80;99.90
18974;DHT22;9621;48.690;9.466;2023-07-29T00:36:50;13.80;99.90
18974;DHT22;9621;48.690;9.466;2023-07-29T00:39:16;13.80;99.90
18974;DHT22;9621;48.690;9.466;2023-07-29T00:41:46;13.80;99.90
18974;DHT22;9621;48.690;9.466;2023-07-29T00:44:12;13.80;99.90
18974;DHT22;9621;48.690;9.466;2023-07-29T00:46:40;13.90;99.90
18974;DHT22;9621;48.690;9.466;2023-07-29T00:49:07;13.90;99.90
18974;DHT22;9621;48.690;9.466;2023-07-29T00:51:35;13.90;99.90
18974;DHT22;9621;48.690;9.466;2023-07-29T00:54:02;14.00;99.90
18974;DHT22;9621;48.690;9.466;2023-07-29T00:56:29;14.00;99.90
18974;DHT22;9621;48.690;9.466;2023-07-29T00:58:58;14.00;99.90
18974;DHT22;9621;48.690;9.466;2023-07-29T01:01:27;14.10;99.90
18974;DHT22;9621;48.690;9.466;2023-07-29T01:03:54;14.10;99.90
18974;DHT22;9621;48.690;9.466;2023-07-29T01:06:29;14.10;99.90
18974;DHT22;9621;48.690;9.466;2023-07-29T01:09:02;14.10;99.90
18974;DHT22;9621;48.690;9.466;2023-07-29T01:11:38;14.10;99.90
18974;DHT22;9621;48.690;9.466;2023-07-29T01:14:16;14.10;99.90
18974;DHT22;9621;48.690;9.466;2023-07-29T01:16:48;14.10;99.90
18974;DHT22;9621;48.690;9.466;2023-07-29T01:19:42;14.10;99.90
18974;DHT22;9621;48.690;9.466;2023-07-29T01:22:10;14.10;99.90
18974;DHT22;9621;48.690;9.466;2023-07-29T01:24:39;14.20;99.90
18974;DHT22;9621;48.690;9.466;2023-07-29T01:27:06;14.20;99.90
18974;DHT22;9621;48.690;9.466;2023-07-29T01:29:33;14.20;99.90
18974;DHT22;9621;48.690;9.466;2023-07-29T01:32:04;14.20;99.90
18974;DHT22;9621;48.690;9.466;2023-07-29T01:34:48;14.20;99.90
18974;DHT22;9621;48.690;9.466;2023-07-29T01:37:24;14.20;99.90
18974;DHT22;9621;48.690;9.466;2023-07-29T01:39:54;14.10;99.90
18974;DHT22;9621;48.690;9.466;2023-07-29T01:42:23;14.20;99.90
18974;DHT22;9621;48.690;9.466;2023-07-29T01:44:51;14.10;99.90
18974;DHT22;9621;48.690;9.466;2023-07-29T01:47:18;14.20;99.90
18974;DHT22;9621;48.690;9.466;2023-07-29T06:24:21;12.80;99.90
18974;DHT22;9621;48.690;9.466;2023-07-29T06:26:47;12.90;99.90
18974;DHT22;9621;48.690;9.466;2023-07-29T06:29:14;13.30;99.90
18974;DHT22;9621;48.690;9.466;2023-07-29T06:31:41;13.80;99.90
18974;DHT22;9621;48.690;9.466;2023-07-29T06:34:08;14.40;99.90
18974;DHT22;9621;48.690;9.466;2023-07-29T06:36:35;15.00;99.90
18974;DHT22;9621;48.690;9.466;2023-07-29T06:39:02;15.50;99.90
18974;DHT22;9621;48.690;9.466;2023-07-29T06:41:30;15.90;99.90
18974;DHT22;9621;48.690;9.466;2023-07-29T06:43:57;16.30;99.90
18974;DHT22;9621;48.690;9.466;2023-07-29T06:46:24;16.60;99.90
18974;DHT22;9621;48.690;9.466;2023-07-29T06:48:51;16.90;99.90
18974;DHT22;9621;48.690;9.466;2023-07-29T06:51:18;17.30;99.90
18974;DHT22;9621;48.690;9.466;2023-07-29T06:53:45;17.60;99.90
18974;DHT22;9621;48.690;9.466;2023-07-29T06:56:12;17.90;99.90
18974;DHT22;9621;48.690;9.466;2023-07-29T06:58:40;18.20;99.90
18974;DHT22;9621;48.690;9.466;2023-07-29T07:01:08;18.40;99.90
18974;DHT22;9621;48.690;9.466;2023-07-29T07:03:35;18.50;99.90
18974;DHT22;9621;48.690;9.466;2023-07-29T07:06:02;18.50;99.90
18974;DHT22;9621;48.690;9.466;2023-07-29T07:08:31;18.50;99.90
18974;DHT22;9621;48.690;9.466;2023-07-29T07:10:58;18.40;99.90
18974;DHT22;9621;48.690;9.466;2023-07-29T07:13:24;18.20;99.90
18974;DHT22;9621;48.690;9.466;2023-07-29T07:15:55;18.10;99.90
18974;DHT22;9621;48.690;9.466;2023-07-29T07:18:22;17.90;99.90
18974;DHT22;9621;48.690;9.466;2023-07-29T07:20:49;17.80;99.90
18974;DHT22;9621;48.690;9.466;2023-07-29T07:23:16;17.60;99.90
18974;DHT22;9621;48.690;9.466;2023-07-29T07:25:44;17.40;99.90
18974;DHT22;9621;48.690;9.466;2023-07-29T07:28:11;17.30;99.90
18974;DHT22;9621;48.690;9.466;2023-07-29T07:30:40;17.10;99.90
18974;DHT22;9621;48.690;9.466;2023-07-29T07:33:08;16.90;99.90
18974;DHT22;9621;48.690;9.466;2023-07-29T07:35:36;16.80;99.90
18974;DHT22;9621;48.690;9.466;2023-07-29T07:38:03;16.70;99.90
18974;DHT22;9621;48.690;9.466;2023-07-29T07:40:33;16.60;99.90
18974;DHT22;9621;48.690;9.466;2023-07-29T07:42:59;16.50;99.90
18974;DHT22;9621;48.690;9.466;2023-07-29T07:45:26;16.40;99.90
18974;DHT22;9621;48.690;9.466;2023-07-29T07:47:54;16.30;99.90
18974;DHT22;9621;48.690;9.466;2023-07-29T07:50:22;16.30;99.90
18974;DHT22;9621;48.690;9.466;2023-07-29T07:52:49;16.20;99.90
18974;DHT22;9621;48.690;9.466;2023-07-29T07:55:16;16.20;99.90
18974;DHT22;9621;48.690;9.466;2023-07-29T07:57:43;16.30;99.90
18974;DHT22;9621;48.690;9.466;2023-07-29T08:00:11;16.30;99.90
18974;DHT22;9621;48.690;9.466;2023-07-29T08:02:38;16.50;99.90
18974;DHT22;9621;48.690;9.466;2023-07-29T08:05:05;16.60;99.90
18974;DHT22;9621;48.690;9.466;2023-07-29T08:07:33;16.70;99.90
18974;DHT22;9621;48.690;9.466;2023-07-29T08:10:00;16.80;99.90
18974;DHT22;9621;48.690;9.466;2023-07-29T08:12:27;16.90;99.90
18974;DHT22;9621;48.690;9.466;2023-07-29T08:14:54;17.00;99.90
18974;DHT22;9621;48.690;9.466;2023-07-29T08:17:21;17.10;99.90
18974;DHT22;9621;48.690;9.466;2023-07-29T08:19:48;17.20;99.90
18974;DHT22;9621;48.690;9.466;2023-07-29T08:22:14;17.30;99.90
18974;DHT22;9621;48.690;9.466;2023-07-29T08:24:44;17.50;99.90
18974;DHT22;9621;48.690;9.466;2023-07-29T08:27:10;17.70;99.90
18974;DHT22;9621;48.690;9.466;2023-07-29T08:29:37;17.90;99.90
18974;DHT22;9621;48.690;9.466;2023-07-29T08:32:04;18.20;99.90
18974;DHT22;9621;48.690;9.466;2023-07-29T08:34:31;18.30;99.90
18974;DHT22;9621;48.690;9.466;2023-07-29T08:36:58;18.50;99.90
18974;DHT22;9621;48.690;9.466;2023-07-29T08:39:25;18.70;99.90
18974;DHT22;9621;48.690;9.466;2023-07-29T08:41:59;18.90;99.90
18974;DHT22;9621;48.690;9.466;2023-07-29T08:44:33;19.10;99.90
18974;DHT22;9621;48.690;9.466;2023-07-29T08:47:02;19.20;99.90
18974;DHT22;9621;48.690;9.466;2023-07-29T08:49:30;19.40;99.90
18974;DHT22;9621;48.690;9.466;2023-07-29T08:51:57;19.50;99.90
18974;DHT22;9621;48.690;9.466;2023-07-29T08:54:25;19.70;99.90
18974;DHT22;9621;48.690;9.466;2023-07-29T08:56:52;19.80;99.90
18974;DHT22;9621;48.690;9.466;2023-07-29T08:59:21;19.90;99.90
18974;DHT22;9621;48.690;9.466;2023-07-29T09:01:48;20.00;99.90
18974;DHT22;9621;48.690;9.466;2023-07-29T09:04:15;20.30;99.90
18974;DHT22;9621;48.690;9.466;2023-07-29T09:06:43;20.70;99.90
18974;DHT22;9621;48.690;9.466;2023-07-29T09:09:11;21.10;99.90
18974;DHT22;9621;48.690;9.466;2023-07-29T09:11:37;21.40;99.90
18974;DHT22;9621;48.690;9.466;2023-07-29T09:14:04;21.60;99.90
18974;DHT22;9621;48.690;9.466;2023-07-29T09:16:33;21.70;99.90
18974;DHT22;9621;48.690;9.466;2023-07-29T09:19:01;21.80;99.90
18974;DHT22;9621;48.690;9.466;2023-07-29T09:21:29;22.00;99.90
18974;DHT22;9621;48.690;9.466;2023-07-29T09:23:56;22.10;99.90
18974;DHT22;9621;48.690;9.466;2023-07-29T09:26:24;22.30;99.90
18974;DHT22;9621;48.690;9.466;2023-07-29T09:28:52;22.50;99.90
18974;DHT22;9621;48.690;9.466;2023-07-29T09:31:20;22.60;99.90
18974;DHT22;9621;48.690;9.466;2023-07-29T09:33:49;22.70;99.90
18974;DHT22;9621;48.690;9.466;2023-07-29T09:36:16;22.90;99.90
18974;DHT22;9621;48.690;9.466;2023-07-29T09:38:44;23.00;99.90
18974;DHT22;9621;48.690;9.466;2023-07-29T09:41:12;23.20;99.90
18974;DHT22;9621;48.690;9.466;2023-07-29T09:43:39;23.50;99.90
18974;DHT22;9621;48.690;9.466;2023-07-29T09:46:06;23.70;99.90
18974;DHT22;9621;48.690;9.466;2023-07-29T09:48:34;23.90;99.90
18974;DHT22;9621;48.690;9.466;2023-07-29T09:51:11;24.10;99.90
18974;DHT22;9621;48.690;9.466;2023-07-29T09:53:42;24.30;99.90
18974;DHT22;9621;48.690;9.466;2023-07-29T09:56:10;24.60;99.90
18974;DHT22;9621;48.690;9.466;2023-07-29T09:58:37;25.00;99.90
18974;DHT22;9621;48.690;9.466;2023-07-29T10:01:04;25.40;99.90
18974;DHT22;9621;48.690;9.466;2023-07-29T10:03:32;25.60;99.90
18974;DHT22;9621;48.690;9.466;2023-07-29T10:06:00;25.90;99.90
18974;DHT22;9621;48.690;9.466;2023-07-29T10:08:30;26.10;99.90
18974;DHT22;9621;48.690;9.466;2023-07-29T10:10:59;26.20;99.90
18974;DHT22;9621;48.690;9.466;2023-07-29T10:13:26;26.30;99.90
18974;DHT22;9621;48.690;9.466;2023-07-29T10:15:54;26.40;99.90
18974;DHT22;9621;48.690;9.466;2023-07-29T10:18:22;26.50;99.90
18974;DHT22;9621;48.690;9.466;2023-07-29T10:20:51;26.60;99.90
18974;DHT22;9621;48.690;9.466;2023-07-29T10:23:18;26.70;99.90
18974;DHT22;9621;48.690;9.466;2023-07-29T10:25:55;26.80;99.90
18974;DHT22;9621;48.690;9.466;2023-07-29T10:28:26;27.10;99.90
18974;DHT22;9621;48.690;9.466;2023-07-29T10:30:56;27.30;99.90
18974;DHT22;9621;48.690;9.466;2023-07-29T10:33:23;27.60;99.90
18974;DHT22;9621;48.690;9.466;2023-07-29T10:35:51;27.70;99.90
18974;DHT22;9621;48.690;9.466;2023-07-29T10:38:19;27.90;99.90
18974;DHT22;9621;48.690;9.466;2023-07-29T10:40:51;28.00;99.90
18974;DHT22;9621;48.690;9.466;2023-07-29T10:43:23;28.10;99.90
18974;DHT22;9621;48.690;9.466;2023-07-29T10:45:50;28.10;99.90
18974;DHT22;9621;48.690;9.466;2023-07-29T10:48:41;28.30;99.90
18974;DHT22;9621;48.690;9.466;2023-07-29T10:51:29;28.20;99.90
18974;DHT22;9621;48.690;9.466;2023-07-29T10:54:00;28.00;99.90
18974;DHT22;9621;48.690;9.466;2023-07-29T10:56:31;27.70;99.90
18974;DHT22;9621;48.690;9.466;2023-07-29T10:59:30;27.40;99.90
18974;DHT22;9621;48.690;9.466;2023-07-29T11:01:58;27.10;99.90
18974;DHT22;9621;48.690;9.466;2023-07-29T11:04:26;26.90;99.90
18974;DHT22;9621;48.690;9.466;2023-07-29T11:07:20;26.70;99.90
18974;DHT22;9621;48.690;9.466;2023-07-29T11:10:02;26.70;99.90
18974;DHT22;9621;48.690;9.466;2023-07-29T11:12:41;26.80;99.90
18974;DHT22;9621;48.690;9.466;2023-07-29T11:15:16;27.10;99.90
18974;DHT22;9621;48.690;9.466;2023-07-29T11:17:45;27.30;99.90
18974;DHT22;9621;48.690;9.466;2023-07-29T11:20:12;27.40;99.90
18974;DHT22;9621;48.690;9.466;2023-07-29T11:22:40;27.50;99.90
18974;DHT22;9621;48.690;9.466;2023-07-29T11:25:09;27.50;99.90
18974;DHT22;9621;48.690;9.466;2023-07-29T11:27:36;27.50;99.90
18974;DHT22;9621;48.690;9.466;2023-07-29T11:30:07;27.40;99.90
18974;DHT22;9621;48.690;9.466;2023-07-29T11:32:35;27.30;99.90
18974;DHT22;9621;48.690;9.466;2023-07-29T11:35:03;27.10;99.90
18974;DHT22;9621;48.690;9.466;2023-07-29T11:37:30;27.00;99.90
18974;DHT22;9621;48.690;9.466;2023-07-29T11:39:58;26.90;99.90
18974;DHT22;9621;48.690;9.466;2023-07-29T11:42:26;26.80;99.90
18974;DHT22;9621;48.690;9.466;2023-07-29T11:44:56;26.80;99.90
18974;DHT22;9621;48.690;9.466;2023-07-29T11:47:25;26.70;99.90
18974;DHT22;9621;48.690;9.466;2023-07-29T11:49:52;26.60;99.90
18974;DHT22;9621;48.690;9.466;2023-07-29T11:52:20;26.60;99.90
18974;DHT22;9621;48.690;9.466;2023-07-29T11:54:48;26.50;99.90
18974;DHT22;9621;48.690;9.466;2023-07-29T11:57:16;26.50;99.90
18974;DHT22;9621;48.690;9.466;2023-07-29T11:59:45;26.50;99.90
18974;DHT22;9621;48.690;9.466;2023-07-29T12:02:15;26.60;99.90
18974;DHT22;9621;48.690;9.466;2023-07-29T12:04:45;26.70;99.90
18974;DHT22;9621;48.690;9.466;2023-07-29T12:07:13;26.70;99.90
18974;DHT22;9621;48.690;9.466;2023-07-29T12:09:41;26.70;99.90
18974;DHT22;9621;48.690;9.466;2023-07-29T12:12:08;26.80;99.90
18974;DHT22;9621;48.690;9.466;2023-07-29T12:14:35;26.90;99.90
18974;DHT22;9621;48.690;9.466;2023-07-29T12:17:04;27.00;99.90
18974;DHT22;9621;48.690;9.466;2023-07-29T12:19:32;27.10;99.90
18974;DHT22;9621;48.690;9.466;2023-07-29T12:22:01;27.20;99.90
18974;DHT22;9621;48.690;9.466;2023-07-29T12:24:29;27.30;99.90
18974;DHT22;9621;48.690;9.466;2023-07-29T12:26:57;27.20;99.90
18974;DHT22;9621;48.690;9.466;2023-07-29T12:29:23;27.10;99.90
18974;DHT22;9621;48.690;9.466;2023-07-29T12:31:57;27.10;99.90
18974;DHT22;9621;48.690;9.466;2023-07-29T12:34:25;27.10;99.90
18974;DHT22;9621;48.690;9.466;2023-07-29T12:36:53;27.10;99.90
18974;DHT22;9621;48.690;9.466;2023-07-29T12:39:24;27.10;99.90
18974;DHT22;9621;48.690;9.466;2023-07-29T12:41:52;27.00;99.90
18974;DHT22;9621;48.690;9.466;2023-07-29T12:44:20;27.00;99.90
18974;DHT22;9621;48.690;9.466;2023-07-29T12:46:46;26.90;99.90
18974;DHT22;9621;48.690;9.466;2023-07-29T12:49:13;27.00;99.90
18974;DHT22;9621;48.690;9.466;2023-07-29T12:51:42;27.10;99.90
18974;DHT22;9621;48.690;9.466;2023-07-29T12:54:09;27.10;99.90
18974;DHT22;9621;48.690;9.466;2023-07-29T12:56:37;27.10;99.70
18974;DHT22;9621;48.690;9.466;2023-07-29T12:59:05;27.20;98.80
18974;DHT22;9621;48.690;9.466;2023-07-29T13:01:32;27.30;98.40
18974;DHT22;9621;48.690;9.466;2023-07-29T13:03:59;27.30;98.40
18974;DHT22;9621;48.690;9.466;2023-07-29T13:06:26;27.30;97.80
18974;DHT22;9621;48.690;9.466;2023-07-29T13:08:52;27.20;96.40
18974;DHT22;9621;48.690;9.466;2023-07-29T13:11:19;27.00;96.30
18974;DHT22;9621;48.690;9.466;2023-07-29T13:13:48;26.90;96.20
18974;DHT22;9621;48.690;9.466;2023-07-29T13:16:15;26.70;95.30
18974;DHT22;9621;48.690;9.466;2023-07-29T13:18:43;26.60;96.60
18974;DHT22;9621;48.690;9.466;2023-07-29T13:21:10;26.50;96.20
18974;DHT22;9621;48.690;9.466;2023-07-29T13:23:37;26.50;97.40
18974;DHT22;9621;48.690;9.466;2023-07-29T13:26:03;26.40;97.60
18974;DHT22;9621;48.690;9.466;2023-07-29T13:28:30;26.40;96.60
18974;DHT22;9621;48.690;9.466;2023-07-29T13:30:58;26.50;97.70
18974;DHT22;9621;48.690;9.466;2023-07-29T13:33:25;26.50;96.50
18974;DHT22;9621;48.690;9.466;2023-07-29T13:35:52;26.60;97.40
18974;DHT22;9621;48.690;9.466;2023-07-29T13:38:19;26.70;97.80
18974;DHT22;9621;48.690;9.466;2023-07-29T13:40:46;26.80;97.90
18974;DHT22;9621;48.690;9.466;2023-07-29T13:43:16;26.90;97.10
18974;DHT22;9621;48.690;9.466;2023-07-29T13:45:43;26.90;96.40
18974;DHT22;9621;48.690;9.466;2023-07-29T13:48:11;26.90;96.50
18974;DHT22;9621;48.690;9.466;2023-07-29T13:50:38;26.90;95.40
18974;DHT22;9621;48.690;9.466;2023-07-29T13:53:05;26.90;96.00
18974;DHT22;9621;48.690;9.466;2023-07-29T13:55:33;26.90;96.90
18974;DHT22;9621;48.690;9.466;2023-07-29T13:58:00;27.00;97.30
18974;DHT22;9621;48.690;9.466;2023-07-29T14:00:29;27.10;97.50
18974;DHT22;9621;48.690;9.466;2023-07-29T14:02:56;27.20;96.40
18974;DHT22;9621;48.690;9.466;2023-07-29T14:05:24;27.30;96.80
18974;DHT22;9621;48.690;9.466;2023-07-29T14:07:51;27.40;96.10
18974;DHT22;9621;48.690;9.466;2023-07-29T14:10:18;27.40;96.60
18974;DHT22;9621;48.690;9.466;2023-07-29T14:12:45;27.40;95.80
18974;DHT22;9621;48.690;9.466;2023-07-29T14:15:12;27.40;95.20
18974;DHT22;9621;48.690;9.466;2023-07-29T14:17:39;27.40;95.50
18974;DHT22;9621;48.690;9.466;2023-07-29T14:20:07;27.40;95.50
18974;DHT22;9621;48.690;9.466;2023-07-29T14:22:35;27.40;95.80
18974;DHT22;9621;48.690;9.466;2023-07-29T14:25:03;27.40;94.00
18974;DHT22;9621;48.690;9.466;2023-07-29T14:27:29;27.50;94.30
18974;DHT22;9621;48.690;9.466;2023-07-29T14:29:56;27.50;94.80
18974;DHT22;9621;48.690;9.466;2023-07-29T14:32:23;27.40;95.10
18974;DHT22;9621;48.690;9.466;2023-07-29T14:34:50;27.40;94.20
18974;DHT22;9621;48.690;9.466;2023-07-29T14:37:17;27.30;93.70
18974;DHT22;9621;48.690;9.466;2023-07-29T14:39:45;27.30;93.20
18974;DHT22;9621;48.690;9.466;2023-07-29T14:42:13;27.20;92.10
18974;DHT22;9621;48.690;9.466;2023-07-29T14:44:40;27.10;93.00
18974;DHT22;9621;48.690;9.466;2023-07-29T14:47:07;27.10;92.80
18974;DHT22;9621;48.690;9.466;2023-07-29T14:49:34;27.10;92.60
18974;DHT22;9621;48.690;9.466;2023-07-29T14:52:01;27.00;92.70
18974;DHT22;9621;48.690;9.466;2023-07-29T14:54:28;27.00;92.90
18974;DHT22;9621;48.690;9.466;2023-07-29T14:56:56;27.00;92.00
18974;DHT22;9621;48.690;9.466;2023-07-29T14:59:23;26.90;92.10
18974;DHT22;9621;48.690;9.466;2023-07-29T15:01:50;26.80;92.80
18974;DHT22;9621;48.690;9.466;2023-07-29T15:04:16;26.80;93.10
18974;DHT22;9621;48.690;9.466;2023-07-29T15:06:43;26.80;94.50
18974;DHT22;9621;48.690;9.466;2023-07-29T15:09:11;26.70;93.00
18974;DHT22;9621;48.690;9.466;2023-07-29T15:11:38;26.70;93.00
18974;DHT22;9621;48.690;9.466;2023-07-29T15:14:07;26.80;92.70
18974;DHT22;9621;48.690;9.466;2023-07-29T15:16:34;26.70;91.40
18974;DHT22;9621;48.690;9.466;2023-07-29T15:19:03;26.60;91.90
18974;DHT22;9621;48.690;9.466;2023-07-29T15:21:30;26.50;92.70
18974;DHT22;9621;48.690;9.466;2023-07-29T15:23:58;26.40;92.00
18974;DHT22;9621;48.690;9.466;2023-07-29T15:26:25;26.30;93.10
18974;DHT22;9621;48.690;9.466;2023-07-29T15:28:52;26.30;93.20
18974;DHT22;9621;48.690;9.466;2023-07-29T15:31:20;26.30;92.70
18974;DHT22;9621;48.690;9.466;2023-07-29T15:33:47;26.20;91.80
18974;DHT22;9621;48.690;9.466;2023-07-29T15:36:14;26.20;92.70
18974;DHT22;9621;48.690;9.466;2023-07-29T15:38:41;26.10;92.90
18974;DHT22;9621;48.690;9.466;2023-07-29T15:41:08;26.00;92.80
18974;DHT22;9621;48.690;9.466;2023-07-29T15:43:35;25.90;93.30
18974;DHT22;9621;48.690;9.466;2023-07-29T15:46:02;25.90;93.30
18974;DHT22;9621;48.690;9.466;2023-07-29T15:48:32;25.90;93.60
18974;DHT22;9621;48.690;9.466;2023-07-29T15:51:08;25.80;92.90
18974;DHT22;9621;48.690;9.466;2023-07-29T15:53:34;25.80;93.80
18974;DHT22;9621;48.690;9.466;2023-07-29T15:56:01;25.90;94.30
18974;DHT22;9621;48.690;9.466;2023-07-29T15:58:28;25.90;94.10
18974;DHT22;9621;48.690;9.466;2023-07-29T16:00:55;26.00;94.30
18974;DHT22;9621;48.690;9.466;2023-07-29T16:03:22;26.00;94.00
18974;DHT22;9621;48.690;9.466;2023-07-29T16:05:51;26.10;94.30
18974;DHT22;9621;48.690;9.466;2023-07-29T16:08:17;26.10;93.70
18974;DHT22;9621;48.690;9.466;2023-07-29T16:10:45;26.20;94.70
18974;DHT22;9621;48.690;9.466;2023-07-29T16:13:11;26.20;94.10
18974;DHT22;9621;48.690;9.466;2023-07-29T16:15:43;26.20;93.90
18974;DHT22;9621;48.690;9.466;2023-07-29T16:18:10;26.20;93.70
18974;DHT22;9621;48.690;9.466;2023-07-29T16:20:37;26.20;93.70
18974;DHT22;9621;48.690;9.466;2023-07-29T16:23:05;26.30;94.10
18974;DHT22;9621;48.690;9.466;2023-07-29T16:25:32;26.30;94.20
18974;DHT22;9621;48.690;9.466;2023-07-29T16:27:59;26.50;95.00
18974;DHT22;9621;48.690;9.466;2023-07-29T16:30:26;26.70;95.40
18974;DHT22;9621;48.690;9.466;2023-07-29T16:32:53;27.00;95.30
18974;DHT22;9621;48.690;9.466;2023-07-29T16:35:20;27.10;94.80
18974;DHT22;9621;48.690;9.466;2023-07-29T16:37:46;27.30;93.10
18974;DHT22;9621;48.690;9.466;2023-07-29T16:40:17;27.30;92.10
18974;DHT22;9621;48.690;9.466;2023-07-29T16:42:43;27.30;90.70
18974;DHT22;9621;48.690;9.466;2023-07-29T16:45:10;27.10;90.90
18974;DHT22;9621;48.690;9.466;2023-07-29T16:47:37;26.80;90.90
18974;DHT22;9621;48.690;9.466;2023-07-29T16:50:05;26.70;90.70
18974;DHT22;9621;48.690;9.466;2023-07-29T16:52:32;26.40;91.10
18974;DHT22;9621;48.690;9.466;2023-07-29T16:54:59;26.30;91.30
18974;DHT22;9621;48.690;9.466;2023-07-29T16:57:27;26.20;91.80
18974;DHT22;9621;48.690;9.466;2023-07-29T16:59:54;26.20;91.40
18974;DHT22;9621;48.690;9.466;2023-07-29T17:02:21;26.10;91.70
18974;DHT22;9621;48.690;9.466;2023-07-29T17:04:48;26.00;91.40
18974;DHT22;9621;48.690;9.466;2023-07-29T17:07:14;25.90;91.70
18974;DHT22;9621;48.690;9.466;2023-07-29T17:09:42;25.80;92.00
18974;DHT22;9621;48.690;9.466;2023-07-29T17:12:11;25.70;92.20
18974;DHT22;9621;48.690;9.466;2023-07-29T17:14:39;25.60;92.70
18974;DHT22;9621;48.690;9.466;2023-07-29T17:17:06;25.40;92.50
18974;DHT22;9621;48.690;9.466;2023-07-29T17:19:35;25.30;92.80
18974;DHT22;9621;48.690;9.466;2023-07-29T17:22:02;25.10;93.30
18974;DHT22;9621;48.690;9.466;2023-07-29T17:24:29;25.00;93.50
18974;DHT22;9621;48.690;9.466;2023-07-29T17:26:56;24.80;93.80
18974;DHT22;9621;48.690;9.466;2023-07-29T17:29:24;24.70;94.20
18974;DHT22;9621;48.690;9.466;2023-07-29T17:31:52;24.50;94.20
18974;DHT22;9621;48.690;9.466;2023-07-29T17:34:19;24.20;94.70
18974;DHT22;9621;48.690;9.466;2023-07-29T17:36:46;24.00;95.40
18974;DHT22;9621;48.690;9.466;2023-07-29T17:39:13;23.60;96.30
18974;DHT22;9621;48.690;9.466;2023-07-29T17:41:40;23.10;97.00
18974;DHT22;9621;48.690;9.466;2023-07-29T17:44:07;22.40;97.90
18974;DHT22;9621;48.690;9.466;2023-07-29T17:46:34;21.70;99.00
18974;DHT22;9621;48.690;9.466;2023-07-29T17:49:02;21.10;99.90
18974;DHT22;9621;48.690;9.466;2023-07-29T17:51:30;20.50;99.90
18974;DHT22;9621;48.690;9.466;2023-07-29T17:53:56;20.10;99.90
18974;DHT22;9621;48.690;9.466;2023-07-29T17:56:23;19.70;99.90
18974;DHT22;9621;48.690;9.466;2023-07-29T17:58:51;19.40;99.90
18974;DHT22;9621;48.690;9.466;2023-07-29T18:01:18;19.10;99.90
18974;DHT22;9621;48.690;9.466;2023-07-29T18:03:45;18.90;99.90
18974;DHT22;9621;48.690;9.466;2023-07-29T18:06:14;18.70;99.90
18974;DHT22;9621;48.690;9.466;2023-07-29T18:08:42;18.60;99.90
18974;DHT22;9621;48.690;9.466;2023-07-29T18:11:09;18.40;99.90
18974;DHT22;9621;48.690;9.466;2023-07-29T18:13:39;18.30;99.90
18974;DHT22;9621;48.690;9.466;2023-07-29T18:16:06;18.20;99.90
18974;DHT22;9621;48.690;9.466;2023-07-29T18:18:33;18.20;99.90
18974;DHT22;9621;48.690;9.466;2023-07-29T18:21:00;18.20;99.90
18974;DHT22;9621;48.690;9.466;2023-07-29T18:23:28;18.10;99.90
18974;DHT22;9621;48.690;9.466;2023-07-29T18:25:55;18.10;99.90
18974;DHT22;9621;48.690;9.466;2023-07-29T18:28:22;18.10;99.90
18974;DHT22;9621;48.690;9.466;2023-07-29T18:30:49;18.10;99.90
18974;DHT22;9621;48.690;9.466;2023-07-29T18:33:16;18.10;99.90
18974;DHT22;9621;48.690;9.466;2023-07-29T18:35:43;18.00;99.90
18974;DHT22;9621;48.690;9.466;2023-07-29T18:38:10;18.00;99.90
18974;DHT22;9621;48.690;9.466;2023-07-29T18:40:39;18.00;99.90
18974;DHT22;9621;48.690;9.466;2023-07-29T18:43:07;17.90;99.90
18974;DHT22;9621;48.690;9.466;2023-07-29T18:45:34;17.90;99.90
18974;DHT22;9621;48.690;9.466;2023-07-29T18:48:02;17.90;99.90
18974;DHT22;9621;48.690;9.466;2023-07-29T18:50:29;17.80;99.90
18974;DHT22;9621;48.690;9.466;2023-07-29T18:52:55;17.80;99.90
18974;DHT22;9621;48.690;9.466;2023-07-29T18:55:24;17.80;99.90
18974;DHT22;9621;48.690;9.466;2023-07-29T18:57:52;17.80;99.90
18974;DHT22;9621;48.690;9.466;2023-07-29T19:00:20;17.70;99.90
18974;DHT22;9621;48.690;9.466;2023-07-29T19:02:46;17.80;99.90
18974;DHT22;9621;48.690;9.466;2023-07-29T19:05:14;17.70;99.90
18974;DHT22;9621;48.690;9.466;2023-07-29T19:07:41;17.70;99.90
18974;DHT22;9621;48.690;9.466;2023-07-29T19:10:08;17.70;99.90
18974;DHT22;9621;48.690;9.466;2023-07-29T19:12:35;17.70;99.90
18974;DHT22;9621;48.690;9.466;2023-07-29T19:15:06;17.70;99.90
18974;DHT22;9621;48.690;9.466;2023-07-29T19:17:33;17.60;99.90
18974;DHT22;9621;48.690;9.466;2023-07-29T19:20:01;17.60;99.90
18974;DHT22;9621;48.690;9.466;2023-07-29T19:22:28;17.50;99.90
18974;DHT22;9621;48.690;9.466;2023-07-29T19:24:54;17.50;99.90
18974;DHT22;9621;48.690;9.466;2023-07-29T19:27:21;17.40;99.90
18974;DHT22;9621;48.690;9.466;2023-07-29T19:29:48;17.30;99.90
18974;DHT22;9621;48.690;9.466;2023-07-29T19:32:16;17.30;99.90
18974;DHT22;9621;48.690;9.466;2023-07-29T19:34:43;17.20;99.90
18974;DHT22;9621;48.690;9.466;2023-07-29T19:37:12;17.20;99.90
18974;DHT22;9621;48.690;9.466;2023-07-29T19:39:41;17.20;99.90
18974;DHT22;9621;48.690;9.466;2023-07-29T19:42:07;17.20;99.90
18974;DHT22;9621;48.690;9.466;2023-07-29T19:44:34;17.10;99.90
18974;DHT22;9621;48.690;9.466;2023-07-29T19:47:01;17.10;99.90
18974;DHT22;9621;48.690;9.466;2023-07-29T19:49:30;17.10;99.90
18974;DHT22;9621;48.690;9.466;2023-07-29T19:51:56;17.10;99.90
18974;DHT22;9621;48.690;9.466;2023-07-29T19:54:26;17.00;99.90
18974;DHT22;9621;48.690;9.466;2023-07-29T19:56:53;17.10;99.90
18974;DHT22;9621;48.690;9.466;2023-07-29T19:59:20;17.00;99.90
18974;DHT22;9621;48.690;9.466;2023-07-29T20:01:47;17.00;99.90
18974;DHT22;9621;48.690;9.466;2023-07-29T20:04:14;16.90;99.90
18974;DHT22;9621;48.690;9.466;2023-07-29T20:06:43;16.90;99.90
18974;DHT22;9621;48.690;9.466;2023-07-29T20:09:10;16.90;99.90
18974;DHT22;9621;48.690;9.466;2023-07-29T20:11:37;16.80;99.90
18974;DHT22;9621;48.690;9.466;2023-07-29T20:14:03;16.80;99.90
18974;DHT22;9621;48.690;9.466;2023-07-29T20:16:30;16.80;99.90
18974;DHT22;9621;48.690;9.466;2023-07-29T20:18:58;16.80;99.90
18974;DHT22;9621;48.690;9.466;2023-07-29T20:21:25;16.80;99.90
18974;DHT22;9621;48.690;9.466;2023-07-29T20:23:53;16.80;99.90
18974;DHT22;9621;48.690;9.466;2023-07-29T20:26:20;16.80;99.90